EKRN

Bornholm Airport

Rønne, Denmark
METAR EKRN 211250Z AUTO 18002KT 9999NDV -RASN OVC038/// 00/M02 Q1027
Observed Flight Rules
Feb-21 @ 12:50 UTC (24 minutes ago)
Wind Clouds Conditions
180° at 2 knots
  • Overcast at 3,800' AGL
  • Snow
  • Light Rain
Temperatures Readings
Current 0°C / 32°F
Dewpoint -2°C / 28°F
Humidity 87%
Altimeter 30.32" Hg
Pressure 1027 hPa
Elevation 16
METAR EKRN 211250Z AUTO 18002KT 9999NDV -RASN OVC038/// 00/M02 Q1027
Observed Flight Rules
Feb-21 @ 12:50 UTC
(24 minutes ago)
Wind
180° at 2 knots
Clouds
  • Overcast at 3,800' AGL
Conditions
  • Snow
  • Light Rain
Temperature Dewpoint
0°C / 32°F -2°C / 28°F
Humidity Altimeter Pressure
87% 30.32" Hg 1027 hPa